Orion II — 9HUT9 — position and weather

sailwx.info

Track history (hours):
 
Tides and Currents Weather Stations Pressure Air Temp Water Temp Dewpoint Dewpoint Depression Visibility Wind Speed Wind Dir Waves Ship Positions

Orion II

Last reported at 2019-Nov-27 08:19 UTC. Time now 2020-Jan-25 05:14 UTC.
Position S 37°39' W 056°39'.
Warning: this ship's position is 58 days out of date.

Length 88 m; draft 4.1 m.

Type: Passenger vessel. MMSI: 249556000.

Date/timePositionNaut miles runAvg speedWind from/ knotsBaromVisibWave heightAir tempDewpointWater temp
2019-Nov-27 08:19S 37°39' W 056°39'3113.6
2019-Nov-27 06:01S 37°10' W 056°26'3513.8
2019-Nov-27 03:30S 36°35' W 056°20'1513.0
2019-Nov-27 02:19S 36°20' W 056°19'7812.4
2019-Nov-26 20:01S 35°02' W 056°13'611.8
2019-Nov-26 19:31S 34°56' W 056°13'2 3.8
2019-Nov-26 18:59S 34°54' W 056°13'0 0.0
2019-Nov-26 14:29S 34°54' W 056°13'0 0.0
2019-Nov-26 12:59S 34°54' W 056°13'1 0.4
2019-Nov-26 10:30S 34°55' W 056°13'13 8.9
2019-Nov-26 08:59S 35°02' W 055°59'1911.7
2019-Nov-26 07:22S 35°04' W 055°36'  
Track history (hours):
 
Tides and Currents Weather Stations Pressure Air Temp Water Temp Dewpoint Dewpoint Depression Visibility Wind Speed Wind Dir Waves Ship Positions

Orion II

Last reported at 2019-Nov-27 08:19 UTC. Time now 2020-Jan-25 05:14 UTC.
Position S 37°39' W 056°39'.
Warning: this ship's position is 58 days out of date.

Length 88 m; draft 4.1 m.

Type: Passenger vessel. MMSI: 249556000.

Date/timePositionNaut miles runAvg speedWind from/ knotsBaromVisibWave heightAir tempDewpointWater temp
2019-Nov-27 08:19S 37°39' W 056°39'3113.6
2019-Nov-27 06:01S 37°10' W 056°26'3513.8
2019-Nov-27 03:30S 36°35' W 056°20'1513.0
2019-Nov-27 02:19S 36°20' W 056°19'7812.4
2019-Nov-26 20:01S 35°02' W 056°13'611.8
2019-Nov-26 19:31S 34°56' W 056°13'2 3.8
2019-Nov-26 18:59S 34°54' W 056°13'0 0.0
2019-Nov-26 14:29S 34°54' W 056°13'0 0.0
2019-Nov-26 12:59S 34°54' W 056°13'1 0.4
2019-Nov-26 10:30S 34°55' W 056°13'13 8.9
2019-Nov-26 08:59S 35°02' W 055°59'1911.7
2019-Nov-26 07:22S 35°04' W 055°36'  

Dump ship's entire track history